createdAt,value
2022-10-11T00:00:15.679Z,4.60
2022-10-11T00:02:42.998Z,4.85
2022-10-11T00:05:10.549Z,4.93
2022-10-11T00:07:38.520Z,5.30
2022-10-11T00:10:09.573Z,5.40
2022-10-11T00:12:37.311Z,5.55
2022-10-11T00:15:06.342Z,4.57
2022-10-11T00:17:34.202Z,5.53
2022-10-11T00:20:01.590Z,6.03
2022-10-11T00:22:28.982Z,6.15
2022-10-11T00:24:58.670Z,5.65
2022-10-11T00:27:26.062Z,5.57
2022-10-11T00:29:53.533Z,5.97
2022-10-11T00:32:20.911Z,5.47
2022-10-11T00:34:48.321Z,5.00
2022-10-11T00:37:15.676Z,6.00
2022-10-11T00:39:43.378Z,5.05
2022-10-11T00:42:15.316Z,5.43
2022-10-11T00:44:50.093Z,5.85
2022-10-11T00:47:20.255Z,5.03
2022-10-11T00:49:55.611Z,5.90
2022-10-11T00:52:40.574Z,6.03
2022-10-11T00:55:14.098Z,4.45
2022-10-11T00:57:46.181Z,5.22
2022-10-11T01:00:15.116Z,4.95
2022-10-11T01:02:43.195Z,5.63
2022-10-11T01:05:30.304Z,4.63
2022-10-11T01:08:01.917Z,4.65
2022-10-11T01:10:29.462Z,5.18
2022-10-11T01:13:32.704Z,5.07
2022-10-11T01:16:03.092Z,4.90
2022-10-11T01:18:50.090Z,5.45
2022-10-11T01:21:35.055Z,3.72
2022-10-11T01:24:41.654Z,5.45
2022-10-11T01:27:32.867Z,5.43
2022-10-11T01:30:24.675Z,4.32
2022-10-11T01:33:07.581Z,5.57
2022-10-11T01:35:49.734Z,6.22
2022-10-11T01:38:47.905Z,4.07
2022-10-11T01:41:28.656Z,4.70
2022-10-11T01:43:59.569Z,5.10
2022-10-11T01:46:29.272Z,5.03
2022-10-11T01:49:00.364Z,4.40
2022-10-11T01:51:34.586Z,5.35
2022-10-11T01:54:02.300Z,4.43
2022-10-11T01:56:38.516Z,4.72
2022-10-11T01:59:39.203Z,5.17
2022-10-11T02:02:44.273Z,5.00
2022-10-11T02:05:29.664Z,4.88
2022-10-11T02:08:09.405Z,4.35
2022-10-11T02:11:04.048Z,4.15
2022-10-11T02:13:47.142Z,5.75
2022-10-11T02:16:19.704Z,5.10
2022-10-11T02:18:50.423Z,4.90
2022-10-11T02:21:21.731Z,4.40
2022-10-11T02:23:54.192Z,4.95
2022-10-11T02:26:23.797Z,5.45
2022-10-11T02:28:56.077Z,5.05
2022-10-11T02:31:24.497Z,4.63
2022-10-11T02:34:00.678Z,4.32
2022-10-11T02:36:54.235Z,4.72
2022-10-11T02:39:45.797Z,5.40
2022-10-11T02:42:42.991Z,5.22
2022-10-11T02:45:23.485Z,4.55
2022-10-11T02:47:50.902Z,6.20
2022-10-11T02:50:18.356Z,5.10
2022-10-11T02:52:45.721Z,4.72
2022-10-11T02:55:13.091Z,4.43
2022-10-11T02:57:40.338Z,4.07
2022-10-11T03:00:09.034Z,5.72
2022-10-11T03:02:36.519Z,5.15
2022-10-11T03:05:03.968Z,5.10
2022-10-11T03:07:31.301Z,4.45
2022-10-11T03:09:58.553Z,5.53
2022-10-11T03:12:26.009Z,4.28
2022-10-11T03:14:53.277Z,4.57
2022-10-11T03:17:35.668Z,3.92
2022-10-11T03:20:06.277Z,4.10
2022-10-11T03:22:33.572Z,5.80
2022-10-11T03:25:03.991Z,4.65
2022-10-11T03:27:33.442Z,4.40
2022-10-11T03:30:01.345Z,4.25
2022-10-11T03:32:29.388Z,5.95
2022-10-11T03:34:57.289Z,4.97
2022-10-11T03:37:25.357Z,4.88
2022-10-11T03:39:52.975Z,4.75
2022-10-11T03:42:21.319Z,4.60
2022-10-11T03:44:51.658Z,5.15
2022-10-11T03:47:19.558Z,5.15
2022-10-11T03:49:46.848Z,4.18
2022-10-11T03:52:14.085Z,4.93
2022-10-11T03:54:41.386Z,4.50
2022-10-11T03:57:08.870Z,4.05
2022-10-11T03:59:36.197Z,4.70
2022-10-11T04:02:04.622Z,5.28
2022-10-11T04:04:32.010Z,4.35
2022-10-11T04:06:59.359Z,5.13
2022-10-11T04:09:26.843Z,4.22
2022-10-11T04:11:54.095Z,4.43
2022-10-11T04:14:21.362Z,4.30
2022-10-11T04:16:48.619Z,5.15
2022-10-11T04:19:15.955Z,4.88
2022-10-11T04:21:43.420Z,4.95
2022-10-11T04:24:13.749Z,4.70
2022-10-11T04:26:41.065Z,4.80
2022-10-11T04:29:08.422Z,4.88
2022-10-11T04:31:35.676Z,4.30
2022-10-11T04:34:02.970Z,4.25
2022-10-11T04:36:33.081Z,3.95
2022-10-11T04:39:01.652Z,4.72
2022-10-11T04:41:29.635Z,4.20
2022-10-11T04:43:57.090Z,5.63
2022-10-11T04:46:24.871Z,5.45
2022-10-11T04:48:52.409Z,4.70
2022-10-11T04:51:20.289Z,4.00
2022-10-11T04:53:48.696Z,4.63
2022-10-11T04:56:18.437Z,5.05
2022-10-11T04:58:49.293Z,3.97
2022-10-11T05:01:16.806Z,4.03
2022-10-11T05:03:44.012Z,4.10
2022-10-11T05:06:11.629Z,5.40
2022-10-11T05:08:39.221Z,4.88
2022-10-11T05:11:10.775Z,4.82
2022-10-11T05:13:38.158Z,4.93
2022-10-11T05:16:10.864Z,4.68
2022-10-11T05:18:40.116Z,4.95
2022-10-11T05:21:14.257Z,4.90
2022-10-11T05:23:42.145Z,5.15
2022-10-11T05:26:10.120Z,4.15
2022-10-11T05:28:37.760Z,4.53
2022-10-11T05:31:05.276Z,5.35
2022-10-11T05:33:32.934Z,4.55
2022-10-11T05:36:00.716Z,4.63
2022-10-11T05:38:28.196Z,5.28
2022-10-11T05:40:58.581Z,4.60
2022-10-11T05:43:26.193Z,5.57
2022-10-11T05:45:54.067Z,4.22
2022-10-11T05:48:21.677Z,5.70
2022-10-11T05:50:49.226Z,5.13
2022-10-11T05:53:16.658Z,4.15
2022-10-11T05:55:44.224Z,4.72
2022-10-11T05:58:14.483Z,4.03
2022-10-11T06:00:41.796Z,4.25
2022-10-11T06:03:12.506Z,3.58
2022-10-11T06:05:40.299Z,4.60
2022-10-11T06:08:09.916Z,4.03
2022-10-11T06:10:38.547Z,4.45
2022-10-11T06:13:07.202Z,5.82
2022-10-11T06:15:34.996Z,5.25
2022-10-11T06:18:02.340Z,4.55
2022-10-11T06:20:29.987Z,4.03
2022-10-11T06:22:58.890Z,4.18
2022-10-11T06:25:26.376Z,4.35
2022-10-11T06:27:54.109Z,5.45
2022-10-11T06:30:21.605Z,5.35
2022-10-11T06:32:48.907Z,4.70
2022-10-11T06:35:16.380Z,5.00
2022-10-11T06:37:43.851Z,4.97
2022-10-11T06:40:11.807Z,5.32
2022-10-11T06:42:39.164Z,5.07
2022-10-11T06:45:07.038Z,5.28
2022-10-11T06:47:34.313Z,5.43
2022-10-11T06:50:01.625Z,5.40
2022-10-11T06:52:28.938Z,6.07
2022-10-11T06:54:56.256Z,5.47
2022-10-11T06:57:23.554Z,5.95
2022-10-11T06:59:51.018Z,4.80
2022-10-11T07:02:18.348Z,7.65
2022-10-11T07:04:45.632Z,4.82
2022-10-11T07:07:14.301Z,4.78
2022-10-11T07:09:41.565Z,4.60
2022-10-11T07:12:09.183Z,4.43
2022-10-11T07:14:36.470Z,4.40
2022-10-11T07:17:03.762Z,5.32
2022-10-11T07:19:31.244Z,5.93
2022-10-11T07:21:58.641Z,5.45
2022-10-11T07:24:26.107Z,5.63
2022-10-11T07:26:53.675Z,4.57
2022-10-11T07:29:21.157Z,4.97
2022-10-11T07:31:48.654Z,5.13
2022-10-11T07:34:16.063Z,5.03
2022-10-11T07:36:43.425Z,5.78
2022-10-11T07:39:10.913Z,5.32
2022-10-11T07:41:43.155Z,5.45
2022-10-11T07:44:13.602Z,5.82
2022-10-11T07:46:41.091Z,5.53
2022-10-11T07:49:08.408Z,6.82
2022-10-11T07:51:35.882Z,4.95
2022-10-11T07:54:07.160Z,5.20
2022-10-11T07:56:34.699Z,5.63
2022-10-11T07:59:03.590Z,6.25
2022-10-11T08:01:31.428Z,6.43
2022-10-11T08:03:59.236Z,6.20
2022-10-11T08:06:30.315Z,5.75
2022-10-11T08:08:59.820Z,5.82
2022-10-11T08:11:30.049Z,5.90
2022-10-11T08:13:59.429Z,5.38
2022-10-11T08:16:26.909Z,6.05
2022-10-11T08:18:56.754Z,5.50
2022-10-11T08:21:24.826Z,6.13
2022-10-11T08:23:52.231Z,5.47
2022-10-11T08:26:19.498Z,6.68
2022-10-11T08:28:46.897Z,5.97
2022-10-11T08:31:15.869Z,5.85
2022-10-11T08:33:43.827Z,5.85
2022-10-11T08:36:11.727Z,6.03
2022-10-11T08:38:39.659Z,5.85
2022-10-11T08:41:31.249Z,5.93
2022-10-11T08:44:20.470Z,5.93
2022-10-11T08:46:56.888Z,6.05
2022-10-11T08:49:30.812Z,6.13
2022-10-11T08:52:06.449Z,6.05
2022-10-11T08:54:54.883Z,6.25
2022-10-11T08:57:28.584Z,7.15
2022-10-11T09:00:09.095Z,7.03
2022-10-11T09:03:08.184Z,6.10
2022-10-11T09:05:51.851Z,7.93
2022-10-11T09:08:24.891Z,6.85
2022-10-11T09:11:10.890Z,7.22
2022-10-11T09:14:08.250Z,7.45
2022-10-11T09:16:42.697Z,7.03
2022-10-11T09:19:31.594Z,8.35
2022-10-11T09:22:30.880Z,7.10
2022-10-11T09:25:20.773Z,9.05
2022-10-11T09:28:04.028Z,8.18
2022-10-11T09:30:32.961Z,9.07
2022-10-11T09:33:05.990Z,7.30
2022-10-11T09:35:40.194Z,8.50
2022-10-11T09:38:18.428Z,8.15
2022-10-11T09:40:54.170Z,8.32
2022-10-11T09:43:21.764Z,6.72
2022-10-11T09:45:49.802Z,8.40
2022-10-11T09:48:23.211Z,7.57
2022-10-11T09:50:51.746Z,6.40
2022-10-11T09:53:19.401Z,7.93
2022-10-11T09:56:02.283Z,8.05
2022-10-11T09:58:36.127Z,5.32
2022-10-11T10:01:12.240Z,6.22
2022-10-11T10:03:44.102Z,5.30
2022-10-11T10:06:28.473Z,5.45
2022-10-11T10:09:20.102Z,6.53
2022-10-11T10:11:47.786Z,5.93
2022-10-11T10:14:29.957Z,5.32
2022-10-11T10:17:14.599Z,7.65
2022-10-11T10:19:54.663Z,5.20
2022-10-11T10:22:27.381Z,5.75
2022-10-11T10:24:56.198Z,5.85
2022-10-11T10:27:34.743Z,5.70
2022-10-11T10:30:07.921Z,5.95
2022-10-11T10:32:57.379Z,5.38
2022-10-11T10:35:31.243Z,4.75
2022-10-11T10:38:08.985Z,7.80
2022-10-11T10:40:52.795Z,5.97
2022-10-11T10:43:24.819Z,3.42
2022-10-11T10:45:58.326Z,4.20
2022-10-11T10:49:12.062Z,5.13
2022-10-11T10:52:03.384Z,4.35
2022-10-11T10:54:40.147Z,3.47
2022-10-11T10:57:37.106Z,3.30
2022-10-11T11:00:19.670Z,4.00
2022-10-11T11:03:06.404Z,3.20
2022-10-11T11:05:58.289Z,3.20
2022-10-11T11:08:46.731Z,3.13
2022-10-11T11:11:26.054Z,2.92
2022-10-11T11:13:59.163Z,4.00
2022-10-11T11:16:36.049Z,2.75
2022-10-11T11:19:06.066Z,3.97
2022-10-11T11:21:59.624Z,3.78
2022-10-11T11:24:43.507Z,3.10
2022-10-11T11:27:44.303Z,3.47
2022-10-11T11:30:22.997Z,3.28
2022-10-11T11:33:22.067Z,3.55
2022-10-11T11:35:54.779Z,3.33
2022-10-11T11:38:30.590Z,2.95
2022-10-11T11:41:05.297Z,3.03
2022-10-11T11:43:37.828Z,2.92
2022-10-11T11:46:32.999Z,2.63
2022-10-11T11:49:12.137Z,2.20
2022-10-11T11:51:45.346Z,2.50
2022-10-11T11:54:24.457Z,3.25
2022-10-11T11:57:01.742Z,3.42
2022-10-11T12:02:35.379Z,3.17
2022-10-11T12:05:05.178Z,2.35
2022-10-11T12:07:57.388Z,2.85
2022-10-11T12:10:53.458Z,2.50
2022-10-11T12:13:31.933Z,2.95
2022-10-11T12:16:12.055Z,3.65
2022-10-11T12:18:56.318Z,2.67
2022-10-11T12:21:37.778Z,4.03
2022-10-11T12:24:20.212Z,2.30
2022-10-11T12:26:49.853Z,4.07
2022-10-11T12:29:17.315Z,2.58
2022-10-11T12:31:47.582Z,3.00
2022-10-11T12:34:20.524Z,2.83
2022-10-11T12:36:50.061Z,2.78
2022-10-11T12:39:22.989Z,3.25
2022-10-11T12:41:53.861Z,3.42
2022-10-11T12:44:23.468Z,2.90
2022-10-11T12:46:50.684Z,2.55
2022-10-11T12:50:06.150Z,2.50
2022-10-11T12:52:40.375Z,3.22
2022-10-11T12:55:28.305Z,2.63
2022-10-11T12:58:38.435Z,3.08
2022-10-11T13:01:13.865Z,3.65
2022-10-11T13:03:42.567Z,3.53
2022-10-11T13:06:17.208Z,2.92
2022-10-11T13:08:51.044Z,2.67
2022-10-11T13:11:29.559Z,2.60
2022-10-11T13:14:00.377Z,2.38
2022-10-11T13:17:11.898Z,2.95
2022-10-11T13:22:23.556Z,2.92
2022-10-11T13:24:50.808Z,2.30
2022-10-11T13:27:23.913Z,3.15
2022-10-11T13:29:53.600Z,3.08
2022-10-11T13:32:26.522Z,2.65
2022-10-11T13:35:01.397Z,2.88
2022-10-11T13:37:30.537Z,3.28
2022-10-11T13:39:58.457Z,2.60
2022-10-11T13:42:31.443Z,3.45
2022-10-11T13:45:00.103Z,3.05
2022-10-11T13:47:30.594Z,2.67
2022-10-11T13:50:22.632Z,3.13
2022-10-11T13:53:00.786Z,2.65
2022-10-11T13:55:35.404Z,3.75
2022-10-11T13:58:12.807Z,3.88
2022-10-11T14:00:56.139Z,2.88
2022-10-11T14:03:27.621Z,3.70
2022-10-11T14:06:00.099Z,3.67
2022-10-11T14:08:39.619Z,2.60
2022-10-11T14:11:08.030Z,3.42
2022-10-11T14:13:46.354Z,3.08
2022-10-11T14:16:29.582Z,3.20
2022-10-11T14:18:59.908Z,3.50
2022-10-11T14:24:27.488Z,3.22
2022-10-11T14:26:56.376Z,3.38
2022-10-11T14:29:28.340Z,2.67
2022-10-11T14:32:10.998Z,3.97
2022-10-11T14:34:38.454Z,2.72
2022-10-11T14:37:06.032Z,2.83
2022-10-11T14:39:33.661Z,3.08
2022-10-11T14:42:01.042Z,3.58
2022-10-11T14:44:28.482Z,3.42
2022-10-11T14:46:55.899Z,3.60
2022-10-11T14:49:28.557Z,3.17
2022-10-11T14:51:57.982Z,2.72
2022-10-11T14:54:27.459Z,4.03
2022-10-11T14:56:56.908Z,3.45
2022-10-11T14:59:26.801Z,3.25
2022-10-11T15:01:54.579Z,3.15
2022-10-11T15:04:23.981Z,3.60
2022-10-11T15:06:52.854Z,2.85
2022-10-11T15:09:21.472Z,3.13
2022-10-11T15:11:50.376Z,2.83
2022-10-11T15:14:17.865Z,2.90
2022-10-11T15:16:45.180Z,2.55
2022-10-11T15:19:18.788Z,2.47
2022-10-11T15:21:46.949Z,2.47
2022-10-11T15:24:15.034Z,3.22
2022-10-11T15:26:42.863Z,2.72
2022-10-11T15:29:14.206Z,2.65
2022-10-11T15:31:41.505Z,2.80
2022-10-11T15:34:08.874Z,2.72
2022-10-11T15:36:36.124Z,1.88
2022-10-11T15:39:03.912Z,2.42
2022-10-11T15:41:31.286Z,3.28
2022-10-11T15:43:58.608Z,2.42
2022-10-11T15:46:25.938Z,2.00
2022-10-11T15:48:53.370Z,2.88
2022-10-11T15:51:20.681Z,2.67
2022-10-11T15:53:48.022Z,2.60
2022-10-11T15:56:18.644Z,2.67
2022-10-11T15:58:46.810Z,2.40
2022-10-11T16:01:17.468Z,4.03
2022-10-11T16:03:46.715Z,2.78
2022-10-11T16:06:15.065Z,2.40
2022-10-11T16:08:42.334Z,2.35
2022-10-11T16:11:11.890Z,3.53
2022-10-11T16:13:39.373Z,2.97
2022-10-11T16:16:08.431Z,2.42
2022-10-11T16:18:36.422Z,2.90
2022-10-11T16:21:10.202Z,2.88
2022-10-11T16:23:38.393Z,3.13
2022-10-11T16:26:11.212Z,1.92
2022-10-11T16:28:38.590Z,2.38
2022-10-11T16:31:08.022Z,2.28
2022-10-11T16:33:35.378Z,2.40
2022-10-11T16:36:26.258Z,2.35
2022-10-11T16:38:53.863Z,2.72
2022-10-11T16:41:21.149Z,2.10
2022-10-11T16:43:52.539Z,2.53
2022-10-11T16:46:20.090Z,2.10
2022-10-11T16:48:47.762Z,2.60
2022-10-11T16:51:15.352Z,3.00
2022-10-11T16:53:42.639Z,3.25
2022-10-11T16:56:11.486Z,2.28
2022-10-11T16:58:38.938Z,2.65
2022-10-11T17:01:10.939Z,3.22
2022-10-11T17:03:38.769Z,2.80
2022-10-11T17:06:07.120Z,3.15
2022-10-11T17:08:35.310Z,2.63
2022-10-11T17:11:03.113Z,2.85
2022-10-11T17:13:30.764Z,3.00
2022-10-11T17:15:58.276Z,3.70
2022-10-11T17:18:26.806Z,3.78
2022-10-11T17:21:05.429Z,3.10
2022-10-11T17:23:34.202Z,3.25
2022-10-11T17:26:11.053Z,2.88
2022-10-11T17:31:08.178Z,2.78
2022-10-11T17:33:35.710Z,4.25
2022-10-11T17:36:23.195Z,2.67
2022-10-11T17:38:51.794Z,3.70
2022-10-11T17:41:19.571Z,3.50
2022-10-11T17:43:47.251Z,3.40
2022-10-11T17:46:16.156Z,3.30
2022-10-11T17:48:45.401Z,3.40
2022-10-11T17:51:16.128Z,3.80
2022-10-11T17:53:44.346Z,4.15
2022-10-11T17:56:14.472Z,3.58
2022-10-11T17:58:42.723Z,4.05
2022-10-11T18:01:14.171Z,4.50
2022-10-11T18:03:42.552Z,4.85
2022-10-11T18:06:12.359Z,5.57
2022-10-11T18:08:40.997Z,5.07
2022-10-11T18:11:13.816Z,4.75
2022-10-11T18:13:46.006Z,6.43
2022-10-11T18:16:15.133Z,9.63
2022-10-11T18:18:43.468Z,7.85
2022-10-11T18:21:12.849Z,8.07
2022-10-11T18:23:40.951Z,7.57
2022-10-11T18:26:20.222Z,8.82
2022-10-11T18:28:47.997Z,8.10
2022-10-11T18:31:18.896Z,8.43
2022-10-11T18:33:47.574Z,8.77
2022-10-11T18:36:16.449Z,9.98
2022-10-11T18:38:46.708Z,7.15
2022-10-11T18:41:16.787Z,12.02
2022-10-11T18:43:52.431Z,16.08
2022-10-11T18:46:20.953Z,15.57
2022-10-11T18:48:50.261Z,16.23
2022-10-11T18:51:26.909Z,20.92
2022-10-11T18:53:55.259Z,24.50
2022-10-11T18:56:25.965Z,22.20
2022-10-11T18:58:56.228Z,20.48
2022-10-11T19:01:27.032Z,17.60
2022-10-11T19:03:56.673Z,17.70
2022-10-11T19:06:35.742Z,22.05
2022-10-11T19:09:06.145Z,21.52
2022-10-11T19:11:34.009Z,20.05
2022-10-11T19:14:08.565Z,16.60
2022-10-11T19:16:38.367Z,15.93
2022-10-11T19:19:06.934Z,13.10
2022-10-11T19:21:34.219Z,11.45
2022-10-11T19:24:01.770Z,10.40
2022-10-11T19:26:33.403Z,11.05
2022-10-11T19:29:03.825Z,10.48
2022-10-11T19:31:33.294Z,11.38
2022-10-11T19:34:00.931Z,9.05
2022-10-11T19:36:32.596Z,9.18
2022-10-11T19:39:03.193Z,7.85
2022-10-11T19:41:30.640Z,6.18
2022-10-11T19:44:00.683Z,7.43
2022-10-11T19:49:17.708Z,8.30
2022-10-11T19:51:45.123Z,10.90
2022-10-11T19:54:13.787Z,11.80
2022-10-11T19:56:42.429Z,14.80
2022-10-11T19:59:11.014Z,13.32
2022-10-11T20:01:39.000Z,9.80
2022-10-11T20:04:09.171Z,9.73
2022-10-11T20:06:40.149Z,9.10
2022-10-11T20:09:29.609Z,8.68
2022-10-11T20:11:56.967Z,7.90
2022-10-11T20:14:24.289Z,8.23
2022-10-11T20:16:52.044Z,8.10
2022-10-11T20:19:19.714Z,8.55
2022-10-11T20:21:47.859Z,8.02
2022-10-11T20:24:15.141Z,8.80
2022-10-11T20:26:42.382Z,12.98
2022-10-11T20:29:09.660Z,13.98
2022-10-11T20:31:41.714Z,15.82
2022-10-11T20:34:09.922Z,13.60
2022-10-11T20:36:37.339Z,13.55
2022-10-11T20:39:05.634Z,13.52
2022-10-11T20:41:37.160Z,11.65
2022-10-11T20:44:05.166Z,11.25
2022-10-11T20:46:35.092Z,9.07
2022-10-11T20:49:07.318Z,9.40
2022-10-11T20:51:37.114Z,8.68
2022-10-11T20:54:04.762Z,8.45
2022-10-11T20:56:32.402Z,6.75
2022-10-11T20:58:59.987Z,7.20
2022-10-11T21:01:39.673Z,5.78
2022-10-11T21:04:09.937Z,7.75
2022-10-11T21:06:37.276Z,6.68
2022-10-11T21:09:04.638Z,6.95
2022-10-11T21:11:33.578Z,7.80
2022-10-11T21:14:03.098Z,6.68
2022-10-11T21:16:30.842Z,7.20
2022-10-11T21:18:59.648Z,7.68
2022-10-11T21:21:28.215Z,7.35
2022-10-11T21:23:57.135Z,9.25
2022-10-11T21:26:25.054Z,7.43
2022-10-11T21:28:52.565Z,8.48
2022-10-11T21:31:23.478Z,9.55
2022-10-11T21:33:51.098Z,9.30
2022-10-11T21:36:21.744Z,9.93
2022-10-11T21:38:50.687Z,8.02
2022-10-11T21:41:22.378Z,10.32
2022-10-11T21:43:49.749Z,13.65
2022-10-11T21:46:19.727Z,11.82
2022-10-11T21:48:47.232Z,11.13
2022-10-11T21:51:18.660Z,8.18
2022-10-11T21:53:45.977Z,7.55
2022-10-11T21:56:13.527Z,7.22
2022-10-11T21:58:40.879Z,7.07
2022-10-11T22:01:08.513Z,7.25
2022-10-11T22:03:35.850Z,6.68
2022-10-11T22:06:03.868Z,5.55
2022-10-11T22:08:31.459Z,4.57
2022-10-11T22:11:00.124Z,5.18
2022-10-11T22:13:29.449Z,5.43
2022-10-11T22:15:56.820Z,4.82
2022-10-11T22:18:24.554Z,5.45
2022-10-11T22:20:52.024Z,4.95
2022-10-11T22:23:19.410Z,5.45
2022-10-11T22:25:46.830Z,5.50
2022-10-11T22:28:14.202Z,6.45
2022-10-11T22:30:41.590Z,7.50
2022-10-11T22:33:08.834Z,5.47
2022-10-11T22:35:37.613Z,5.32
2022-10-11T22:38:06.217Z,5.10
2022-10-11T22:40:33.571Z,4.97
2022-10-11T22:43:00.846Z,5.70
2022-10-11T22:45:28.326Z,6.50
2022-10-11T22:47:55.517Z,5.65
2022-10-11T22:50:22.893Z,6.93
2022-10-11T22:52:50.126Z,5.03
2022-10-11T22:55:20.122Z,5.03
2022-10-11T22:57:47.649Z,6.93
2022-10-11T23:00:15.201Z,5.18
2022-10-11T23:02:42.494Z,5.63
2022-10-11T23:05:11.682Z,5.90
2022-10-11T23:07:39.326Z,7.00
2022-10-11T23:10:07.606Z,6.63
2022-10-11T23:12:34.953Z,5.53
2022-10-11T23:15:02.211Z,4.30
2022-10-11T23:17:29.509Z,5.00
2022-10-11T23:19:56.775Z,5.25
2022-10-11T23:22:25.469Z,5.60
2022-10-11T23:24:52.928Z,5.30
2022-10-11T23:27:20.324Z,4.82
2022-10-11T23:29:47.588Z,5.43
2022-10-11T23:32:14.841Z,6.10
2022-10-11T23:34:42.289Z,4.65
2022-10-11T23:37:09.656Z,5.70
2022-10-11T23:39:37.040Z,5.80
2022-10-11T23:42:04.373Z,5.47
2022-10-11T23:44:31.617Z,5.18
2022-10-11T23:46:58.945Z,5.68
2022-10-11T23:49:26.161Z,5.28
2022-10-11T23:51:53.417Z,4.78
2022-10-11T23:54:20.629Z,5.65
2022-10-11T23:56:47.929Z,4.72
2022-10-11T23:59:15.215Z,5.78
